sensor_id;sensor_type;location;lat;lon;timestamp;P1;durP1;ratioP1;P2;durP2;ratioP2
3121;SDS011;1571;52.524;14.104;2022-12-18T00:01:56;28.10;;;14.73;;
3121;SDS011;1571;52.524;14.104;2022-12-18T00:04:25;35.67;;;16.33;;
3121;SDS011;1571;52.524;14.104;2022-12-18T00:06:54;33.70;;;15.07;;
3121;SDS011;1571;52.524;14.104;2022-12-18T00:09:22;35.67;;;15.83;;
3121;SDS011;1571;52.524;14.104;2022-12-18T00:12:06;36.90;;;17.47;;
3121;SDS011;1571;52.524;14.104;2022-12-18T00:14:41;40.17;;;17.30;;
3121;SDS011;1571;52.524;14.104;2022-12-18T00:17:09;36.80;;;18.93;;
3121;SDS011;1571;52.524;14.104;2022-12-18T00:19:38;46.50;;;19.40;;
3121;SDS011;1571;52.524;14.104;2022-12-18T00:22:06;40.93;;;19.03;;
3121;SDS011;1571;52.524;14.104;2022-12-18T00:24:34;39.40;;;19.20;;
3121;SDS011;1571;52.524;14.104;2022-12-18T00:27:02;37.10;;;17.50;;
3121;SDS011;1571;52.524;14.104;2022-12-18T00:29:32;37.80;;;16.60;;
3121;SDS011;1571;52.524;14.104;2022-12-18T00:32:00;35.90;;;17.33;;
3121;SDS011;1571;52.524;14.104;2022-12-18T00:34:28;31.80;;;14.70;;
3121;SDS011;1571;52.524;14.104;2022-12-18T00:36:57;35.80;;;17.60;;
3121;SDS011;1571;52.524;14.104;2022-12-18T00:39:25;43.37;;;19.10;;
3121;SDS011;1571;52.524;14.104;2022-12-18T00:41:53;30.33;;;16.00;;
3121;SDS011;1571;52.524;14.104;2022-12-18T00:44:40;36.17;;;14.73;;
3121;SDS011;1571;52.524;14.104;2022-12-18T00:47:09;34.97;;;15.50;;
3121;SDS011;1571;52.524;14.104;2022-12-18T00:49:37;29.43;;;13.07;;
3121;SDS011;1571;52.524;14.104;2022-12-18T00:52:05;23.03;;;12.80;;
3121;SDS011;1571;52.524;14.104;2022-12-18T00:54:33;29.13;;;15.13;;
3121;SDS011;1571;52.524;14.104;2022-12-18T00:57:01;23.17;;;13.80;;
3121;SDS011;1571;52.524;14.104;2022-12-18T00:59:30;25.03;;;12.50;;
3121;SDS011;1571;52.524;14.104;2022-12-18T01:01:59;26.87;;;12.43;;
3121;SDS011;1571;52.524;14.104;2022-12-18T01:04:27;23.23;;;11.10;;
3121;SDS011;1571;52.524;14.104;2022-12-18T01:06:59;25.03;;;11.90;;
3121;SDS011;1571;52.524;14.104;2022-12-18T01:09:28;21.70;;;12.77;;
3121;SDS011;1571;52.524;14.104;2022-12-18T01:11:56;25.57;;;11.97;;
3121;SDS011;1571;52.524;14.104;2022-12-18T01:14:24;23.83;;;11.13;;
3121;SDS011;1571;52.524;14.104;2022-12-18T01:16:53;24.83;;;10.93;;
3121;SDS011;1571;52.524;14.104;2022-12-18T01:19:23;21.23;;;12.43;;
3121;SDS011;1571;52.524;14.104;2022-12-18T01:21:51;22.50;;;10.90;;
3121;SDS011;1571;52.524;14.104;2022-12-18T01:24:19;22.57;;;9.63;;
3121;SDS011;1571;52.524;14.104;2022-12-18T01:26:48;21.67;;;12.03;;
3121;SDS011;1571;52.524;14.104;2022-12-18T01:29:16;28.97;;;12.83;;
3121;SDS011;1571;52.524;14.104;2022-12-18T01:31:44;22.93;;;11.97;;
3121;SDS011;1571;52.524;14.104;2022-12-18T01:34:13;24.50;;;13.30;;
3121;SDS011;1571;52.524;14.104;2022-12-18T01:36:42;27.70;;;12.30;;
3121;SDS011;1571;52.524;14.104;2022-12-18T01:39:11;23.00;;;10.50;;
3121;SDS011;1571;52.524;14.104;2022-12-18T01:41:41;23.83;;;12.43;;
3121;SDS011;1571;52.524;14.104;2022-12-18T01:47:34;28.67;;;12.40;;
3121;SDS011;1571;52.524;14.104;2022-12-18T01:50:06;30.97;;;15.10;;
3121;SDS011;1571;52.524;14.104;2022-12-18T01:52:40;29.87;;;13.10;;
3121;SDS011;1571;52.524;14.104;2022-12-18T01:55:10;23.77;;;14.90;;
3121;SDS011;1571;52.524;14.104;2022-12-18T01:57:41;28.60;;;13.97;;
3121;SDS011;1571;52.524;14.104;2022-12-18T02:00:11;29.93;;;13.87;;
3121;SDS011;1571;52.524;14.104;2022-12-18T02:02:42;31.37;;;13.77;;
3121;SDS011;1571;52.524;14.104;2022-12-18T02:05:13;23.00;;;13.13;;
3121;SDS011;1571;52.524;14.104;2022-12-18T02:08:00;22.40;;;11.43;;
3121;SDS011;1571;52.524;14.104;2022-12-18T02:10:39;23.30;;;11.80;;
3121;SDS011;1571;52.524;14.104;2022-12-18T02:13:17;25.57;;;13.80;;
3121;SDS011;1571;52.524;14.104;2022-12-18T02:15:54;26.60;;;13.50;;
3121;SDS011;1571;52.524;14.104;2022-12-18T02:18:29;22.53;;;11.23;;
3121;SDS011;1571;52.524;14.104;2022-12-18T02:21:00;25.60;;;14.03;;
3121;SDS011;1571;52.524;14.104;2022-12-18T02:23:43;30.43;;;12.53;;
3121;SDS011;1571;52.524;14.104;2022-12-18T02:26:21;23.47;;;10.47;;
3121;SDS011;1571;52.524;14.104;2022-12-18T02:28:56;27.93;;;14.47;;
3121;SDS011;1571;52.524;14.104;2022-12-18T02:31:31;26.60;;;14.47;;
3121;SDS011;1571;52.524;14.104;2022-12-18T02:34:05;40.00;;;18.10;;
3121;SDS011;1571;52.524;14.104;2022-12-18T02:36:38;33.57;;;14.63;;
3121;SDS011;1571;52.524;14.104;2022-12-18T02:39:10;36.33;;;16.60;;
3121;SDS011;1571;52.524;14.104;2022-12-18T02:41:54;31.30;;;16.50;;
3121;SDS011;1571;52.524;14.104;2022-12-18T02:44:24;32.63;;;14.00;;
3121;SDS011;1571;52.524;14.104;2022-12-18T02:46:53;47.80;;;16.63;;
3121;SDS011;1571;52.524;14.104;2022-12-18T02:49:26;29.17;;;14.47;;
3121;SDS011;1571;52.524;14.104;2022-12-18T02:52:05;44.67;;;19.57;;
3121;SDS011;1571;52.524;14.104;2022-12-18T02:54:41;33.17;;;16.70;;
3121;SDS011;1571;52.524;14.104;2022-12-18T02:57:23;51.63;;;19.30;;
3121;SDS011;1571;52.524;14.104;2022-12-18T03:00:03;36.87;;;17.17;;
3121;SDS011;1571;52.524;14.104;2022-12-18T03:02:37;34.70;;;17.53;;
3121;SDS011;1571;52.524;14.104;2022-12-18T03:05:13;24.70;;;13.57;;
3121;SDS011;1571;52.524;14.104;2022-12-18T03:07:46;34.13;;;15.20;;
3121;SDS011;1571;52.524;14.104;2022-12-18T03:10:21;32.50;;;14.30;;
3121;SDS011;1571;52.524;14.104;2022-12-18T03:12:56;31.47;;;14.00;;
3121;SDS011;1571;52.524;14.104;2022-12-18T03:15:31;31.67;;;13.10;;
3121;SDS011;1571;52.524;14.104;2022-12-18T03:18:10;24.10;;;12.60;;
3121;SDS011;1571;52.524;14.104;2022-12-18T03:20:41;34.03;;;12.77;;
3121;SDS011;1571;52.524;14.104;2022-12-18T03:23:15;32.60;;;14.07;;
3121;SDS011;1571;52.524;14.104;2022-12-18T03:26:05;30.90;;;15.43;;
3121;SDS011;1571;52.524;14.104;2022-12-18T03:28:42;31.87;;;14.30;;
3121;SDS011;1571;52.524;14.104;2022-12-18T03:31:13;29.03;;;12.40;;
3121;SDS011;1571;52.524;14.104;2022-12-18T03:33:45;34.90;;;14.67;;
3121;SDS011;1571;52.524;14.104;2022-12-18T03:36:19;31.80;;;14.83;;
3121;SDS011;1571;52.524;14.104;2022-12-18T03:38:47;24.37;;;11.50;;
3121;SDS011;1571;52.524;14.104;2022-12-18T03:41:18;23.40;;;12.13;;
3121;SDS011;1571;52.524;14.104;2022-12-18T03:44:14;28.40;;;13.80;;
3121;SDS011;1571;52.524;14.104;2022-12-18T03:46:53;32.13;;;14.20;;
3121;SDS011;1571;52.524;14.104;2022-12-18T03:49:28;30.03;;;13.50;;
3121;SDS011;1571;52.524;14.104;2022-12-18T03:52:05;28.57;;;13.87;;
3121;SDS011;1571;52.524;14.104;2022-12-18T03:54:39;30.53;;;15.20;;
3121;SDS011;1571;52.524;14.104;2022-12-18T03:57:14;27.47;;;13.70;;
3121;SDS011;1571;52.524;14.104;2022-12-18T03:59:49;27.90;;;13.70;;
3121;SDS011;1571;52.524;14.104;2022-12-18T04:02:25;28.90;;;13.53;;
3121;SDS011;1571;52.524;14.104;2022-12-18T04:04:55;28.63;;;13.07;;
3121;SDS011;1571;52.524;14.104;2022-12-18T04:07:27;26.83;;;13.87;;
3121;SDS011;1571;52.524;14.104;2022-12-18T04:09:58;31.17;;;14.50;;
3121;SDS011;1571;52.524;14.104;2022-12-18T04:12:30;28.40;;;14.50;;
3121;SDS011;1571;52.524;14.104;2022-12-18T04:15:00;25.40;;;11.70;;
3121;SDS011;1571;52.524;14.104;2022-12-18T04:17:29;35.27;;;14.87;;
3121;SDS011;1571;52.524;14.104;2022-12-18T04:19:57;30.33;;;14.37;;
3121;SDS011;1571;52.524;14.104;2022-12-18T04:22:26;31.47;;;15.50;;
3121;SDS011;1571;52.524;14.104;2022-12-18T04:24:58;31.73;;;15.53;;
3121;SDS011;1571;52.524;14.104;2022-12-18T04:27:38;28.90;;;15.10;;
3121;SDS011;1571;52.524;14.104;2022-12-18T04:30:09;28.20;;;13.93;;
3121;SDS011;1571;52.524;14.104;2022-12-18T04:32:38;30.90;;;13.87;;
3121;SDS011;1571;52.524;14.104;2022-12-18T04:35:08;26.47;;;12.90;;
3121;SDS011;1571;52.524;14.104;2022-12-18T04:37:40;24.07;;;11.50;;
3121;SDS011;1571;52.524;14.104;2022-12-18T04:40:08;30.37;;;12.10;;
3121;SDS011;1571;52.524;14.104;2022-12-18T04:42:41;31.87;;;13.40;;
3121;SDS011;1571;52.524;14.104;2022-12-18T04:45:11;28.67;;;12.50;;
3121;SDS011;1571;52.524;14.104;2022-12-18T04:47:39;25.53;;;13.03;;
3121;SDS011;1571;52.524;14.104;2022-12-18T04:50:08;33.13;;;13.13;;
3121;SDS011;1571;52.524;14.104;2022-12-18T04:52:36;29.30;;;13.90;;
3121;SDS011;1571;52.524;14.104;2022-12-18T04:55:04;34.37;;;12.20;;
3121;SDS011;1571;52.524;14.104;2022-12-18T04:57:33;36.83;;;13.70;;
3121;SDS011;1571;52.524;14.104;2022-12-18T05:00:02;27.00;;;12.87;;
3121;SDS011;1571;52.524;14.104;2022-12-18T05:02:34;24.00;;;12.37;;
3121;SDS011;1571;52.524;14.104;2022-12-18T05:05:02;27.97;;;12.80;;
3121;SDS011;1571;52.524;14.104;2022-12-18T05:07:31;29.00;;;15.17;;
3121;SDS011;1571;52.524;14.104;2022-12-18T05:09:59;28.37;;;12.10;;
3121;SDS011;1571;52.524;14.104;2022-12-18T05:12:27;23.80;;;13.00;;
3121;SDS011;1571;52.524;14.104;2022-12-18T05:14:55;23.73;;;10.50;;
3121;SDS011;1571;52.524;14.104;2022-12-18T05:17:23;24.53;;;11.53;;
3121;SDS011;1571;52.524;14.104;2022-12-18T05:19:53;25.13;;;10.10;;
3121;SDS011;1571;52.524;14.104;2022-12-18T05:22:21;27.23;;;11.70;;
3121;SDS011;1571;52.524;14.104;2022-12-18T05:24:49;24.23;;;10.27;;
3121;SDS011;1571;52.524;14.104;2022-12-18T05:27:18;26.33;;;11.60;;
3121;SDS011;1571;52.524;14.104;2022-12-18T05:29:47;24.50;;;12.30;;
3121;SDS011;1571;52.524;14.104;2022-12-18T05:32:15;25.87;;;11.90;;
3121;SDS011;1571;52.524;14.104;2022-12-18T05:34:43;28.77;;;12.37;;
3121;SDS011;1571;52.524;14.104;2022-12-18T05:37:13;24.47;;;12.03;;
3121;SDS011;1571;52.524;14.104;2022-12-18T05:39:42;19.93;;;11.07;;
3121;SDS011;1571;52.524;14.104;2022-12-18T05:42:10;24.33;;;11.40;;
3121;SDS011;1571;52.524;14.104;2022-12-18T05:44:38;25.43;;;12.07;;
3121;SDS011;1571;52.524;14.104;2022-12-18T05:47:07;27.03;;;12.40;;
3121;SDS011;1571;52.524;14.104;2022-12-18T05:49:35;32.33;;;14.80;;
3121;SDS011;1571;52.524;14.104;2022-12-18T05:52:03;21.53;;;13.17;;
3121;SDS011;1571;52.524;14.104;2022-12-18T05:54:33;22.20;;;12.60;;
3121;SDS011;1571;52.524;14.104;2022-12-18T05:57:01;26.60;;;14.87;;
3121;SDS011;1571;52.524;14.104;2022-12-18T05:59:29;29.23;;;12.83;;
3121;SDS011;1571;52.524;14.104;2022-12-18T06:01:58;37.23;;;15.30;;
3121;SDS011;1571;52.524;14.104;2022-12-18T06:04:26;26.40;;;12.60;;
3121;SDS011;1571;52.524;14.104;2022-12-18T06:06:55;30.47;;;13.93;;
3121;SDS011;1571;52.524;14.104;2022-12-18T06:09:23;26.80;;;13.50;;
3121;SDS011;1571;52.524;14.104;2022-12-18T06:11:53;30.97;;;12.90;;
3121;SDS011;1571;52.524;14.104;2022-12-18T06:14:21;30.20;;;13.03;;
3121;SDS011;1571;52.524;14.104;2022-12-18T06:16:50;24.03;;;12.40;;
3121;SDS011;1571;52.524;14.104;2022-12-18T06:19:18;27.03;;;10.87;;
3121;SDS011;1571;52.524;14.104;2022-12-18T06:21:47;27.60;;;12.33;;
3121;SDS011;1571;52.524;14.104;2022-12-18T06:24:16;28.53;;;12.70;;
3121;SDS011;1571;52.524;14.104;2022-12-18T06:26:44;28.93;;;11.73;;
3121;SDS011;1571;52.524;14.104;2022-12-18T06:29:14;29.53;;;12.90;;
3121;SDS011;1571;52.524;14.104;2022-12-18T06:31:42;30.53;;;11.83;;
3121;SDS011;1571;52.524;14.104;2022-12-18T06:34:10;25.20;;;13.03;;
3121;SDS011;1571;52.524;14.104;2022-12-18T06:36:39;23.90;;;11.77;;
3121;SDS011;1571;52.524;14.104;2022-12-18T06:39:07;30.93;;;12.70;;
3121;SDS011;1571;52.524;14.104;2022-12-18T06:41:35;29.53;;;14.10;;
3121;SDS011;1571;52.524;14.104;2022-12-18T06:44:05;29.43;;;13.63;;
3121;SDS011;1571;52.524;14.104;2022-12-18T06:46:34;30.43;;;13.00;;
3121;SDS011;1571;52.524;14.104;2022-12-18T06:49:03;22.97;;;12.57;;
3121;SDS011;1571;52.524;14.104;2022-12-18T06:51:31;28.23;;;13.60;;
3121;SDS011;1571;52.524;14.104;2022-12-18T06:53:59;33.17;;;13.27;;
3121;SDS011;1571;52.524;14.104;2022-12-18T06:56:27;26.80;;;11.47;;
3121;SDS011;1571;52.524;14.104;2022-12-18T06:58:55;30.83;;;14.07;;
3121;SDS011;1571;52.524;14.104;2022-12-18T07:01:24;24.43;;;12.03;;
3121;SDS011;1571;52.524;14.104;2022-12-18T07:03:53;25.23;;;11.70;;
3121;SDS011;1571;52.524;14.104;2022-12-18T07:06:23;26.03;;;13.27;;
3121;SDS011;1571;52.524;14.104;2022-12-18T07:08:53;18.37;;;12.33;;
3121;SDS011;1571;52.524;14.104;2022-12-18T07:11:22;24.40;;;12.47;;
3121;SDS011;1571;52.524;14.104;2022-12-18T07:13:51;25.57;;;10.47;;
3121;SDS011;1571;52.524;14.104;2022-12-18T07:16:20;24.63;;;12.00;;
3121;SDS011;1571;52.524;14.104;2022-12-18T07:18:51;21.00;;;11.27;;
3121;SDS011;1571;52.524;14.104;2022-12-18T07:21:21;24.73;;;11.43;;
3121;SDS011;1571;52.524;14.104;2022-12-18T07:23:51;23.23;;;9.53;;
3121;SDS011;1571;52.524;14.104;2022-12-18T07:26:20;22.43;;;10.87;;
3121;SDS011;1571;52.524;14.104;2022-12-18T07:28:49;25.73;;;11.33;;
3121;SDS011;1571;52.524;14.104;2022-12-18T07:31:18;18.83;;;10.20;;
3121;SDS011;1571;52.524;14.104;2022-12-18T07:33:48;26.03;;;12.70;;
3121;SDS011;1571;52.524;14.104;2022-12-18T07:36:17;26.10;;;12.43;;
3121;SDS011;1571;52.524;14.104;2022-12-18T07:38:47;26.57;;;11.60;;
3121;SDS011;1571;52.524;14.104;2022-12-18T07:41:16;24.97;;;12.43;;
3121;SDS011;1571;52.524;14.104;2022-12-18T07:43:45;26.60;;;10.67;;
3121;SDS011;1571;52.524;14.104;2022-12-18T07:46:14;26.20;;;11.97;;
3121;SDS011;1571;52.524;14.104;2022-12-18T07:48:44;26.93;;;11.83;;
3121;SDS011;1571;52.524;14.104;2022-12-18T07:51:16;16.83;;;9.50;;
3121;SDS011;1571;52.524;14.104;2022-12-18T07:53:45;27.20;;;11.70;;
3121;SDS011;1571;52.524;14.104;2022-12-18T07:56:20;31.53;;;12.40;;
3121;SDS011;1571;52.524;14.104;2022-12-18T07:58:57;35.50;;;13.10;;
3121;SDS011;1571;52.524;14.104;2022-12-18T08:01:26;29.30;;;13.50;;
3121;SDS011;1571;52.524;14.104;2022-12-18T08:03:55;25.43;;;11.87;;
3121;SDS011;1571;52.524;14.104;2022-12-18T08:06:23;28.23;;;13.40;;
3121;SDS011;1571;52.524;14.104;2022-12-18T08:08:52;19.70;;;10.97;;
3121;SDS011;1571;52.524;14.104;2022-12-18T08:11:22;25.47;;;11.83;;
3121;SDS011;1571;52.524;14.104;2022-12-18T08:13:51;23.60;;;13.63;;
3121;SDS011;1571;52.524;14.104;2022-12-18T08:16:20;27.03;;;11.87;;
3121;SDS011;1571;52.524;14.104;2022-12-18T08:18:51;30.73;;;11.77;;
3121;SDS011;1571;52.524;14.104;2022-12-18T08:21:21;39.60;;;14.70;;
3121;SDS011;1571;52.524;14.104;2022-12-18T08:23:50;33.63;;;14.97;;
3121;SDS011;1571;52.524;14.104;2022-12-18T08:26:21;34.47;;;15.17;;
3121;SDS011;1571;52.524;14.104;2022-12-18T08:28:52;33.23;;;13.87;;
3121;SDS011;1571;52.524;14.104;2022-12-18T08:31:21;37.63;;;17.40;;
3121;SDS011;1571;52.524;14.104;2022-12-18T08:33:51;32.30;;;14.53;;
3121;SDS011;1571;52.524;14.104;2022-12-18T08:36:21;28.60;;;13.97;;
3121;SDS011;1571;52.524;14.104;2022-12-18T08:38:50;32.97;;;14.63;;
3121;SDS011;1571;52.524;14.104;2022-12-18T08:41:19;30.00;;;14.97;;
3121;SDS011;1571;52.524;14.104;2022-12-18T08:43:49;31.90;;;13.03;;
3121;SDS011;1571;52.524;14.104;2022-12-18T08:46:35;38.87;;;18.13;;
3121;SDS011;1571;52.524;14.104;2022-12-18T08:49:06;33.27;;;17.50;;
3121;SDS011;1571;52.524;14.104;2022-12-18T08:51:35;43.40;;;16.83;;
3121;SDS011;1571;52.524;14.104;2022-12-18T08:54:03;35.00;;;15.80;;
3121;SDS011;1571;52.524;14.104;2022-12-18T08:56:32;29.13;;;15.10;;
3121;SDS011;1571;52.524;14.104;2022-12-18T08:59:02;29.13;;;13.03;;
3121;SDS011;1571;52.524;14.104;2022-12-18T09:01:31;33.50;;;13.60;;
3121;SDS011;1571;52.524;14.104;2022-12-18T09:04:00;33.53;;;16.03;;
3121;SDS011;1571;52.524;14.104;2022-12-18T09:06:28;30.10;;;13.67;;
3121;SDS011;1571;52.524;14.104;2022-12-18T09:08:57;34.07;;;16.10;;
3121;SDS011;1571;52.524;14.104;2022-12-18T09:11:27;36.13;;;15.60;;
3121;SDS011;1571;52.524;14.104;2022-12-18T09:13:56;28.87;;;14.20;;
3121;SDS011;1571;52.524;14.104;2022-12-18T09:16:27;26.67;;;13.20;;
3121;SDS011;1571;52.524;14.104;2022-12-18T09:18:59;31.13;;;14.97;;
3121;SDS011;1571;52.524;14.104;2022-12-18T09:21:28;27.77;;;13.10;;
3121;SDS011;1571;52.524;14.104;2022-12-18T09:23:59;28.63;;;13.27;;
3121;SDS011;1571;52.524;14.104;2022-12-18T09:26:27;25.80;;;14.10;;
3121;SDS011;1571;52.524;14.104;2022-12-18T09:28:56;28.40;;;13.70;;
3121;SDS011;1571;52.524;14.104;2022-12-18T09:31:24;27.70;;;14.77;;
3121;SDS011;1571;52.524;14.104;2022-12-18T09:33:55;24.60;;;12.87;;
3121;SDS011;1571;52.524;14.104;2022-12-18T09:36:23;23.53;;;13.20;;
3121;SDS011;1571;52.524;14.104;2022-12-18T09:38:52;21.50;;;13.13;;
3121;SDS011;1571;52.524;14.104;2022-12-18T09:41:30;26.57;;;13.40;;
3121;SDS011;1571;52.524;14.104;2022-12-18T09:44:10;28.87;;;13.10;;
3121;SDS011;1571;52.524;14.104;2022-12-18T09:46:44;21.00;;;11.67;;
3121;SDS011;1571;52.524;14.104;2022-12-18T09:49:18;27.20;;;14.00;;
3121;SDS011;1571;52.524;14.104;2022-12-18T09:51:50;26.70;;;13.10;;
3121;SDS011;1571;52.524;14.104;2022-12-18T09:54:22;28.97;;;13.30;;
3121;SDS011;1571;52.524;14.104;2022-12-18T09:56:54;32.63;;;14.07;;
3121;SDS011;1571;52.524;14.104;2022-12-18T09:59:23;27.63;;;15.30;;
3121;SDS011;1571;52.524;14.104;2022-12-18T10:01:54;28.57;;;14.23;;
3121;SDS011;1571;52.524;14.104;2022-12-18T10:04:24;27.13;;;13.30;;
3121;SDS011;1571;52.524;14.104;2022-12-18T10:07:00;25.23;;;13.30;;
3121;SDS011;1571;52.524;14.104;2022-12-18T10:09:37;25.17;;;13.20;;
3121;SDS011;1571;52.524;14.104;2022-12-18T10:12:12;29.97;;;13.60;;
3121;SDS011;1571;52.524;14.104;2022-12-18T10:14:50;21.60;;;12.20;;
3121;SDS011;1571;52.524;14.104;2022-12-18T10:17:26;33.83;;;15.30;;
3121;SDS011;1571;52.524;14.104;2022-12-18T10:20:02;22.43;;;13.73;;
3121;SDS011;1571;52.524;14.104;2022-12-18T10:22:41;25.10;;;14.90;;
3121;SDS011;1571;52.524;14.104;2022-12-18T10:25:19;22.00;;;13.13;;
3121;SDS011;1571;52.524;14.104;2022-12-18T10:27:51;23.57;;;10.43;;
3121;SDS011;1571;52.524;14.104;2022-12-18T10:30:22;17.57;;;11.50;;
3121;SDS011;1571;52.524;14.104;2022-12-18T10:32:52;23.00;;;12.97;;
3121;SDS011;1571;52.524;14.104;2022-12-18T10:35:23;23.20;;;12.53;;
3121;SDS011;1571;52.524;14.104;2022-12-18T10:37:59;21.70;;;11.63;;
3121;SDS011;1571;52.524;14.104;2022-12-18T10:40:29;22.30;;;11.73;;
3121;SDS011;1571;52.524;14.104;2022-12-18T10:43:03;21.67;;;12.60;;
3121;SDS011;1571;52.524;14.104;2022-12-18T10:45:32;20.00;;;10.80;;
3121;SDS011;1571;52.524;14.104;2022-12-18T10:48:00;21.73;;;12.47;;
3121;SDS011;1571;52.524;14.104;2022-12-18T10:50:31;23.87;;;12.20;;
3121;SDS011;1571;52.524;14.104;2022-12-18T10:53:21;20.00;;;10.40;;
3121;SDS011;1571;52.524;14.104;2022-12-18T10:55:52;19.80;;;10.10;;
3121;SDS011;1571;52.524;14.104;2022-12-18T10:58:23;17.20;;;9.60;;
3121;SDS011;1571;52.524;14.104;2022-12-18T11:01:05;20.30;;;11.53;;
3121;SDS011;1571;52.524;14.104;2022-12-18T11:03:36;29.40;;;11.03;;
3121;SDS011;1571;52.524;14.104;2022-12-18T11:06:09;19.40;;;10.17;;
3121;SDS011;1571;52.524;14.104;2022-12-18T11:08:39;29.93;;;12.50;;
3121;SDS011;1571;52.524;14.104;2022-12-18T11:11:15;22.63;;;10.20;;
3121;SDS011;1571;52.524;14.104;2022-12-18T11:13:54;23.93;;;12.57;;
3121;SDS011;1571;52.524;14.104;2022-12-18T11:16:29;22.70;;;12.80;;
3121;SDS011;1571;52.524;14.104;2022-12-18T11:19:11;25.90;;;12.47;;
3121;SDS011;1571;52.524;14.104;2022-12-18T11:21:50;27.63;;;13.33;;
3121;SDS011;1571;52.524;14.104;2022-12-18T11:24:20;21.63;;;11.43;;
3121;SDS011;1571;52.524;14.104;2022-12-18T11:26:55;26.67;;;12.40;;
3121;SDS011;1571;52.524;14.104;2022-12-18T11:29:31;29.87;;;12.53;;
3121;SDS011;1571;52.524;14.104;2022-12-18T11:34:53;22.13;;;12.90;;
3121;SDS011;1571;52.524;14.104;2022-12-18T11:37:29;17.00;;;12.70;;
3121;SDS011;1571;52.524;14.104;2022-12-18T11:39:59;31.80;;;14.80;;
3121;SDS011;1571;52.524;14.104;2022-12-18T11:42:32;22.07;;;10.67;;
3121;SDS011;1571;52.524;14.104;2022-12-18T11:45:21;28.97;;;11.90;;
3121;SDS011;1571;52.524;14.104;2022-12-18T11:47:56;25.97;;;13.13;;
3121;SDS011;1571;52.524;14.104;2022-12-18T11:50:31;26.47;;;11.97;;
3121;SDS011;1571;52.524;14.104;2022-12-18T11:53:03;23.23;;;11.80;;
3121;SDS011;1571;52.524;14.104;2022-12-18T11:55:35;17.53;;;10.47;;
3121;SDS011;1571;52.524;14.104;2022-12-18T11:58:11;21.73;;;11.90;;
3121;SDS011;1571;52.524;14.104;2022-12-18T12:00:52;24.30;;;12.80;;
3121;SDS011;1571;52.524;14.104;2022-12-18T12:03:39;21.67;;;10.80;;
3121;SDS011;1571;52.524;14.104;2022-12-18T12:06:21;25.40;;;11.27;;
3121;SDS011;1571;52.524;14.104;2022-12-18T12:09:03;25.13;;;12.37;;
3121;SDS011;1571;52.524;14.104;2022-12-18T12:11:40;25.03;;;13.23;;
3121;SDS011;1571;52.524;14.104;2022-12-18T12:14:23;20.20;;;10.80;;
3121;SDS011;1571;52.524;14.104;2022-12-18T12:17:01;20.40;;;10.33;;
3121;SDS011;1571;52.524;14.104;2022-12-18T12:19:39;23.10;;;12.00;;
3121;SDS011;1571;52.524;14.104;2022-12-18T12:22:17;22.07;;;12.03;;
3121;SDS011;1571;52.524;14.104;2022-12-18T12:25:00;26.00;;;11.90;;
3121;SDS011;1571;52.524;14.104;2022-12-18T12:27:45;24.87;;;12.00;;
3121;SDS011;1571;52.524;14.104;2022-12-18T12:30:27;23.50;;;11.53;;
3121;SDS011;1571;52.524;14.104;2022-12-18T12:33:10;19.83;;;12.60;;
3121;SDS011;1571;52.524;14.104;2022-12-18T12:35:51;24.37;;;12.10;;
3121;SDS011;1571;52.524;14.104;2022-12-18T12:38:26;24.97;;;12.77;;
3121;SDS011;1571;52.524;14.104;2022-12-18T12:41:00;21.20;;;11.10;;
3121;SDS011;1571;52.524;14.104;2022-12-18T12:43:33;25.00;;;11.10;;
3121;SDS011;1571;52.524;14.104;2022-12-18T12:46:12;25.80;;;13.20;;
3121;SDS011;1571;52.524;14.104;2022-12-18T12:48:44;30.23;;;12.43;;
3121;SDS011;1571;52.524;14.104;2022-12-18T12:51:17;28.30;;;14.20;;
3121;SDS011;1571;52.524;14.104;2022-12-18T12:53:49;25.37;;;13.83;;
3121;SDS011;1571;52.524;14.104;2022-12-18T12:56:20;26.87;;;12.10;;
3121;SDS011;1571;52.524;14.104;2022-12-18T12:58:52;20.57;;;12.20;;
3121;SDS011;1571;52.524;14.104;2022-12-18T13:01:32;23.37;;;11.10;;
3121;SDS011;1571;52.524;14.104;2022-12-18T13:04:08;25.27;;;11.20;;
3121;SDS011;1571;52.524;14.104;2022-12-18T13:06:45;22.03;;;12.13;;
3121;SDS011;1571;52.524;14.104;2022-12-18T13:09:21;26.80;;;11.90;;
3121;SDS011;1571;52.524;14.104;2022-12-18T13:11:51;24.47;;;11.83;;
3121;SDS011;1571;52.524;14.104;2022-12-18T13:14:38;20.03;;;10.87;;
3121;SDS011;1571;52.524;14.104;2022-12-18T13:20:03;26.00;;;10.80;;
3121;SDS011;1571;52.524;14.104;2022-12-18T13:22:34;24.17;;;13.47;;
3121;SDS011;1571;52.524;14.104;2022-12-18T13:28:02;23.83;;;10.70;;
3121;SDS011;1571;52.524;14.104;2022-12-18T13:30:44;20.93;;;10.97;;
3121;SDS011;1571;52.524;14.104;2022-12-18T13:36:35;24.30;;;12.33;;
3121;SDS011;1571;52.524;14.104;2022-12-18T13:48:29;23.40;;;12.20;;
3121;SDS011;1571;52.524;14.104;2022-12-18T13:51:02;22.63;;;12.93;;
3121;SDS011;1571;52.524;14.104;2022-12-18T13:53:34;27.60;;;13.20;;
3121;SDS011;1571;52.524;14.104;2022-12-18T13:56:07;24.20;;;10.93;;
3121;SDS011;1571;52.524;14.104;2022-12-18T13:58:36;21.70;;;11.30;;
3121;SDS011;1571;52.524;14.104;2022-12-18T14:01:10;20.90;;;11.10;;
3121;SDS011;1571;52.524;14.104;2022-12-18T14:06:36;25.83;;;12.83;;
3121;SDS011;1571;52.524;14.104;2022-12-18T14:09:05;28.13;;;13.10;;
3121;SDS011;1571;52.524;14.104;2022-12-18T14:11:48;25.80;;;12.20;;
3121;SDS011;1571;52.524;14.104;2022-12-18T14:14:18;23.70;;;11.47;;
3121;SDS011;1571;52.524;14.104;2022-12-18T14:16:51;23.27;;;11.80;;
3121;SDS011;1571;52.524;14.104;2022-12-18T14:19:21;21.40;;;14.03;;
3121;SDS011;1571;52.524;14.104;2022-12-18T14:21:49;24.93;;;12.47;;
3121;SDS011;1571;52.524;14.104;2022-12-18T14:24:19;24.83;;;13.03;;
3121;SDS011;1571;52.524;14.104;2022-12-18T14:26:49;35.87;;;13.47;;
3121;SDS011;1571;52.524;14.104;2022-12-18T14:29:19;24.90;;;11.80;;
3121;SDS011;1571;52.524;14.104;2022-12-18T14:34:44;25.40;;;13.27;;
3121;SDS011;1571;52.524;14.104;2022-12-18T14:37:14;23.30;;;13.10;;
3121;SDS011;1571;52.524;14.104;2022-12-18T14:39:52;25.83;;;15.90;;
3121;SDS011;1571;52.524;14.104;2022-12-18T14:42:25;30.43;;;14.63;;
3121;SDS011;1571;52.524;14.104;2022-12-18T14:48:11;29.10;;;15.07;;
3121;SDS011;1571;52.524;14.104;2022-12-18T14:50:56;25.73;;;14.23;;
3121;SDS011;1571;52.524;14.104;2022-12-18T14:53:32;29.00;;;14.73;;
3121;SDS011;1571;52.524;14.104;2022-12-18T14:56:03;33.00;;;13.70;;
3121;SDS011;1571;52.524;14.104;2022-12-18T14:58:44;27.40;;;14.03;;
3121;SDS011;1571;52.524;14.104;2022-12-18T15:01:21;27.67;;;16.23;;
3121;SDS011;1571;52.524;14.104;2022-12-18T15:03:53;32.43;;;14.40;;
3121;SDS011;1571;52.524;14.104;2022-12-18T15:06:24;23.93;;;11.97;;
3121;SDS011;1571;52.524;14.104;2022-12-18T15:08:57;29.77;;;14.70;;
3121;SDS011;1571;52.524;14.104;2022-12-18T15:11:32;26.10;;;13.60;;
3121;SDS011;1571;52.524;14.104;2022-12-18T15:16:50;26.10;;;14.07;;
3121;SDS011;1571;52.524;14.104;2022-12-18T15:19:22;28.17;;;16.17;;
3121;SDS011;1571;52.524;14.104;2022-12-18T15:21:59;29.07;;;13.90;;
3121;SDS011;1571;52.524;14.104;2022-12-18T15:24:32;27.10;;;14.87;;
3121;SDS011;1571;52.524;14.104;2022-12-18T15:27:01;27.17;;;15.93;;
3121;SDS011;1571;52.524;14.104;2022-12-18T15:29:29;30.70;;;15.60;;
3121;SDS011;1571;52.524;14.104;2022-12-18T15:31:58;28.03;;;13.97;;
3121;SDS011;1571;52.524;14.104;2022-12-18T15:34:32;27.90;;;16.30;;
3121;SDS011;1571;52.524;14.104;2022-12-18T15:37:01;31.50;;;18.47;;
3121;SDS011;1571;52.524;14.104;2022-12-18T15:39:30;22.43;;;14.23;;
3121;SDS011;1571;52.524;14.104;2022-12-18T15:42:00;34.23;;;16.83;;